createdAt,value
2023-04-09T00:01:15.636Z,101369.94
2023-04-09T00:03:17.302Z,101378.03
2023-04-09T00:05:18.871Z,101377.47
2023-04-09T00:07:20.484Z,101379.09
2023-04-09T00:09:22.034Z,101380.13
2023-04-09T00:11:23.605Z,101373.66
2023-04-09T00:13:31.910Z,101370.41
2023-04-09T00:15:42.075Z,101374.16
2023-04-09T00:17:43.786Z,101372.81
2023-04-09T00:19:45.373Z,101367.69
2023-04-09T00:21:47.297Z,101364.44
2023-04-09T00:23:48.873Z,101365.25
2023-04-09T00:25:50.462Z,101369.28
2023-04-09T00:27:52.016Z,101369.84
2023-04-09T00:29:53.820Z,101367.41
2023-04-09T00:31:56.842Z,101364.75
2023-04-09T00:33:58.503Z,101367.19
2023-04-09T00:36:00.139Z,101359.63
2023-04-09T00:38:01.863Z,101360.41
2023-04-09T00:40:04.209Z,101355.28
2023-04-09T00:42:05.801Z,101349.63
2023-04-09T00:44:07.359Z,101350.97
2023-04-09T00:46:08.936Z,101351.22
2023-04-09T00:48:12.611Z,101357.13
2023-04-09T00:50:14.147Z,101354.19
2023-04-09T00:52:15.710Z,101355.50
2023-04-09T00:54:17.368Z,101354.16
2023-04-09T00:56:21.880Z,101353.41
2023-04-09T00:58:23.454Z,101359.66
2023-04-09T01:00:29.110Z,101352.06
2023-04-09T01:02:30.949Z,101359.09
2023-04-09T01:04:34.253Z,101355.56
2023-04-09T01:06:42.330Z,101357.19
2023-04-09T01:08:51.761Z,101361.53
2023-04-09T01:11:02.654Z,101358.28
2023-04-09T01:13:09.934Z,101353.41
2023-04-09T01:15:15.355Z,101371.50
2023-04-09T01:17:22.021Z,101360.16
2023-04-09T01:19:43.789Z,101355.03
2023-04-09T01:21:45.946Z,101356.88
2023-04-09T01:23:57.021Z,101350.69
2023-04-09T01:26:04.413Z,101352.03
2023-04-09T01:28:16.236Z,101357.41
2023-04-09T01:30:18.745Z,101346.34
2023-04-09T01:32:22.086Z,101355.50
2023-04-09T01:34:24.315Z,101350.66
2023-04-09T01:36:26.853Z,101355.25
2023-04-09T01:38:28.391Z,101364.13
2023-04-09T01:40:30.282Z,101355.47
2023-04-09T01:42:32.875Z,101358.41
2023-04-09T01:44:38.330Z,101356.78
2023-04-09T01:46:40.657Z,101358.50
2023-04-09T01:48:43.511Z,101362.53
2023-04-09T01:50:45.347Z,101356.06
2023-04-09T01:52:47.298Z,101363.34
2023-04-09T01:54:49.129Z,101363.88
2023-04-09T01:56:50.639Z,101366.28
2023-04-09T01:58:52.554Z,101364.31
2023-04-09T02:01:01.052Z,101366.38
2023-04-09T02:03:08.216Z,101366.31
2023-04-09T02:05:12.022Z,101359.81
2023-04-09T02:07:27.868Z,101362.78
2023-04-09T02:09:31.562Z,101371.94
2023-04-09T02:11:34.450Z,101361.13
2023-04-09T02:13:37.522Z,101364.84
2023-04-09T02:15:40.456Z,101361.03
2023-04-09T02:17:43.475Z,101362.66
2023-04-09T02:19:46.509Z,101357.56
2023-04-09T02:21:48.038Z,101368.41
2023-04-09T02:23:49.642Z,101359.53
2023-04-09T02:25:52.518Z,101363.59
2023-04-09T02:27:54.040Z,101362.75
2023-04-09T02:29:55.597Z,101366.50
2023-04-09T02:31:57.244Z,101358.09
2023-04-09T02:34:00.099Z,101361.88
2023-04-09T02:36:01.724Z,101357.84
2023-04-09T02:38:03.725Z,101359.09
2023-04-09T02:40:06.486Z,101368.28
2023-04-09T02:42:08.107Z,101359.63
2023-04-09T02:44:09.738Z,101352.50
2023-04-09T02:46:11.380Z,101353.59
2023-04-09T02:48:12.967Z,101358.81
2023-04-09T02:50:15.923Z,101355.28
2023-04-09T02:52:17.523Z,101354.69
2023-04-09T02:54:19.103Z,101355.75
2023-04-09T02:56:20.666Z,101357.09
2023-04-09T02:58:22.199Z,101361.66
2023-04-09T03:00:23.908Z,101357.84
2023-04-09T03:02:25.598Z,101361.06
2023-04-09T03:04:27.312Z,101351.56
2023-04-09T03:06:33.092Z,101353.69
2023-04-09T03:08:34.609Z,101352.59
2023-04-09T03:10:36.192Z,101349.06
2023-04-09T03:12:37.793Z,101350.19
2023-04-09T03:14:39.366Z,101345.38
2023-04-09T03:16:40.845Z,101350.50
2023-04-09T03:18:42.472Z,101347.53
2023-04-09T03:20:44.095Z,101342.69
2023-04-09T03:22:46.997Z,101345.66
2023-04-09T03:24:48.643Z,101337.00
2023-04-09T03:26:50.289Z,101344.31
2023-04-09T03:28:51.961Z,101341.91
2023-04-09T03:30:53.710Z,101341.13
2023-04-09T03:32:55.333Z,101339.50
2023-04-09T03:34:56.888Z,101334.19
2023-04-09T03:36:58.465Z,101330.41
2023-04-09T03:39:01.354Z,101343.00
2023-04-09T03:41:02.907Z,101340.28
2023-04-09T03:43:04.538Z,101339.22
2023-04-09T03:45:06.923Z,101336.75
2023-04-09T03:47:08.423Z,101343.75
2023-04-09T03:49:09.957Z,101338.38
2023-04-09T03:51:12.033Z,101337.31
2023-04-09T03:53:13.597Z,101340.06
2023-04-09T03:55:16.567Z,101336.59
2023-04-09T03:57:18.047Z,101338.44
2023-04-09T03:59:19.538Z,101337.03
2023-04-09T04:01:21.115Z,101336.53
2023-04-09T04:03:22.668Z,101341.63
2023-04-09T04:05:24.635Z,101342.97
2023-04-09T04:07:26.279Z,101344.38
2023-04-09T04:09:27.818Z,101344.66
2023-04-09T04:11:31.159Z,101340.59
2023-04-09T04:13:32.770Z,101341.91
2023-04-09T04:15:34.409Z,101337.59
2023-04-09T04:17:35.970Z,101341.97
2023-04-09T04:19:37.499Z,101339.28
2023-04-09T04:21:39.067Z,101344.59
2023-04-09T04:23:40.629Z,101333.81
2023-04-09T04:25:42.643Z,101353.97
2023-04-09T04:27:45.538Z,101346.44
2023-04-09T04:29:47.033Z,101353.47
2023-04-09T04:31:48.623Z,101337.81
2023-04-09T04:33:50.205Z,101344.59
2023-04-09T04:35:51.814Z,101350.78
2023-04-09T04:37:53.347Z,101350.28
2023-04-09T04:39:54.878Z,101347.03
2023-04-09T04:41:56.392Z,101348.09
2023-04-09T04:43:59.256Z,101351.63
2023-04-09T04:46:00.859Z,101352.41
2023-04-09T04:48:02.409Z,101349.78
2023-04-09T04:50:04.795Z,101348.38
2023-04-09T04:52:06.380Z,101351.63
2023-04-09T04:54:07.916Z,101352.75
2023-04-09T04:56:13.061Z,101357.38
2023-04-09T04:58:14.653Z,101361.44
2023-04-09T05:00:17.576Z,101354.91
2023-04-09T05:02:19.406Z,101356.31
2023-04-09T05:04:21.174Z,101359.88
2023-04-09T05:06:22.774Z,101357.44
2023-04-09T05:08:24.292Z,101367.09
2023-04-09T05:10:26.026Z,101357.94
2023-04-09T05:12:27.514Z,101362.78
2023-04-09T05:14:29.076Z,101359.78
2023-04-09T05:16:33.194Z,101362.47
2023-04-09T05:18:34.814Z,101365.69
2023-04-09T05:20:36.399Z,101357.31
2023-04-09T05:22:37.947Z,101363.28
2023-04-09T05:24:39.485Z,101365.47
2023-04-09T05:26:41.066Z,101363.84
2023-04-09T05:28:42.640Z,101361.41
2023-04-09T05:30:46.387Z,101358.66
2023-04-09T05:32:49.558Z,101369.63
2023-04-09T05:34:51.194Z,101371.13
2023-04-09T05:36:53.883Z,101368.34
2023-04-09T05:38:55.747Z,101367.59
2023-04-09T05:40:57.573Z,101366.50
2023-04-09T05:42:59.098Z,101369.97
2023-04-09T05:45:00.635Z,101372.75
2023-04-09T05:47:02.263Z,101366.81
2023-04-09T05:49:05.187Z,101375.53
2023-04-09T05:51:06.815Z,101373.91
2023-04-09T05:53:08.346Z,101371.69
2023-04-09T05:55:10.123Z,101381.41
2023-04-09T05:57:11.679Z,101373.91
2023-04-09T05:59:13.229Z,101374.47
2023-04-09T06:01:14.769Z,101374.69
2023-04-09T06:03:16.464Z,101365.34
2023-04-09T06:05:19.503Z,101378.03
2023-04-09T06:07:21.052Z,101374.03
2023-04-09T06:09:22.666Z,101373.22
2023-04-09T06:11:24.211Z,101374.34
2023-04-09T06:13:25.786Z,101377.53
2023-04-09T06:15:27.776Z,101378.09
2023-04-09T06:17:29.401Z,101376.97
2023-04-09T06:19:30.987Z,101381.78
2023-04-09T06:21:34.179Z,101384.22
2023-04-09T06:23:36.632Z,101381.28
2023-04-09T06:25:38.192Z,101386.13
2023-04-09T06:27:39.788Z,101388.91
2023-04-09T06:29:41.278Z,101391.19
2023-04-09T06:31:43.013Z,101382.31
2023-04-09T06:33:44.747Z,101377.72
2023-04-09T06:35:46.405Z,101387.50
2023-04-09T06:37:49.362Z,101387.22
2023-04-09T06:40:00.668Z,101385.38
2023-04-09T06:42:03.308Z,101396.97
2023-04-09T06:44:04.866Z,101393.25
2023-04-09T06:46:06.821Z,101397.31
2023-04-09T06:48:08.554Z,101394.94
2023-04-09T06:50:10.542Z,101393.59
2023-04-09T06:52:12.108Z,101401.47
2023-04-09T06:54:15.021Z,101399.88
2023-04-09T06:56:16.643Z,101397.19
2023-04-09T06:58:18.252Z,101394.53
2023-04-09T07:00:19.787Z,101396.72
2023-04-09T07:02:21.647Z,101391.34
2023-04-09T07:04:23.350Z,101393.78
2023-04-09T07:06:25.084Z,101396.50
2023-04-09T07:08:26.922Z,101396.78
2023-04-09T07:10:29.870Z,101395.97
2023-04-09T07:12:32.578Z,101392.25
2023-04-09T07:14:34.121Z,101391.44
2023-04-09T07:16:35.692Z,101398.47
2023-04-09T07:18:37.252Z,101394.44
2023-04-09T07:20:38.803Z,101394.47
2023-04-09T07:22:40.406Z,101395.53
2023-04-09T07:24:41.994Z,101394.22
2023-04-09T07:26:44.900Z,101399.66
2023-04-09T07:28:46.485Z,101396.94
2023-04-09T07:30:48.028Z,101404.81
2023-04-09T07:32:49.785Z,101398.38
2023-04-09T07:34:51.799Z,101391.63
2023-04-09T07:36:53.356Z,101399.75
2023-04-09T07:38:55.215Z,101400.03
2023-04-09T07:40:57.066Z,101399.75
2023-04-09T07:42:59.973Z,101404.09
2023-04-09T07:45:01.552Z,101408.41
2023-04-09T07:47:03.931Z,101403.00
2023-04-09T07:49:05.516Z,101404.09
2023-04-09T07:51:07.414Z,101406.53
2023-04-09T07:53:08.993Z,101410.03
2023-04-09T07:55:10.586Z,101407.63
2023-04-09T07:57:12.154Z,101408.69
2023-04-09T07:59:15.450Z,101406.53
2023-04-09T08:01:17.197Z,101404.13
2023-04-09T08:03:19.078Z,101407.88
2023-04-09T08:05:21.185Z,101400.84
2023-04-09T08:07:22.982Z,101401.91
2023-04-09T08:09:24.668Z,101409.47
2023-04-09T08:11:26.296Z,101414.84
2023-04-09T08:13:27.900Z,101404.03
2023-04-09T08:15:30.747Z,101405.38
2023-04-09T08:17:32.386Z,101412.41
2023-04-09T08:19:33.997Z,101412.13
2023-04-09T08:21:37.224Z,101416.94
2023-04-09T08:23:38.871Z,101416.66
2023-04-09T08:25:40.417Z,101418.53
2023-04-09T08:27:42.008Z,101418.81
2023-04-09T08:29:43.552Z,101417.44
2023-04-09T08:31:46.470Z,101412.53
2023-04-09T08:33:47.993Z,101418.47
2023-04-09T08:35:49.644Z,101422.50
2023-04-09T08:37:51.212Z,101425.47
2023-04-09T08:39:52.742Z,101424.63
2023-04-09T08:41:58.437Z,101421.88
2023-04-09T08:44:00.273Z,101422.66
2023-04-09T08:46:01.998Z,101428.06
2023-04-09T08:48:08.441Z,101427.75
2023-04-09T08:50:10.620Z,101423.47
2023-04-09T08:52:12.121Z,101423.47
2023-04-09T08:54:15.680Z,101421.25
2023-04-09T08:56:17.267Z,101427.94
2023-04-09T08:58:18.802Z,101421.94
2023-04-09T09:00:20.524Z,101431.50
2023-04-09T09:02:22.347Z,101428.28
2023-04-09T09:04:25.513Z,101430.44
2023-04-09T09:06:28.565Z,101435.88
2023-04-09T09:08:30.137Z,101420.47
2023-04-09T09:10:37.564Z,101427.22
2023-04-09T09:12:41.210Z,101432.09
2023-04-09T09:14:42.688Z,101432.16
2023-04-09T09:17:02.842Z,101429.97
2023-04-09T09:19:04.448Z,101436.44
2023-04-09T09:21:14.366Z,101423.44
2023-04-09T09:23:17.959Z,101426.72
2023-04-09T09:25:19.944Z,101425.34
2023-04-09T09:27:33.110Z,101421.78
2023-04-09T09:29:41.839Z,101424.72
2023-04-09T09:31:47.224Z,101426.06
2023-04-09T09:33:49.127Z,101420.63
2023-04-09T09:35:52.041Z,101420.31
2023-04-09T09:38:04.653Z,101419.41
2023-04-09T09:40:07.911Z,101419.38
2023-04-09T09:42:09.485Z,101417.16
2023-04-09T09:44:12.699Z,101419.09
2023-04-09T09:46:15.509Z,101418.56
2023-04-09T09:48:17.173Z,101417.22
2023-04-09T09:50:20.016Z,101414.50
2023-04-09T09:52:25.536Z,101418.03
2023-04-09T09:54:35.562Z,101419.63
2023-04-09T09:56:38.982Z,101415.06
2023-04-09T09:58:44.014Z,101408.28
2023-04-09T10:00:47.720Z,101416.69
2023-04-09T10:02:56.741Z,101413.47
2023-04-09T10:05:01.210Z,101416.69
2023-04-09T10:07:05.321Z,101411.03
2023-04-09T10:09:07.323Z,101406.75
2023-04-09T10:11:10.407Z,101406.19
2023-04-09T10:13:16.187Z,101404.25
2023-04-09T10:15:18.497Z,101407.78
2023-04-09T10:17:20.193Z,101404.50
2023-04-09T10:19:22.129Z,101401.00
2023-04-09T10:21:32.710Z,101400.69
2023-04-09T10:23:38.781Z,101395.28
2023-04-09T10:25:41.676Z,101394.75
2023-04-09T10:27:44.888Z,101404.75
2023-04-09T10:29:47.676Z,101398.53
2023-04-09T10:31:52.830Z,101398.00
2023-04-09T10:33:54.408Z,101400.94
2023-04-09T10:36:00.078Z,101395.22
2023-04-09T10:38:01.652Z,101391.16
2023-04-09T10:40:03.973Z,101385.13
2023-04-09T10:42:11.538Z,101389.56
2023-04-09T10:44:25.014Z,101385.19
2023-04-09T10:46:28.784Z,101388.66
2023-04-09T10:48:33.266Z,101384.50
2023-04-09T10:50:34.801Z,101384.97
2023-04-09T10:52:40.629Z,101380.41
2023-04-09T10:54:46.136Z,101379.19
2023-04-09T10:57:12.426Z,101373.53
2023-04-09T10:59:13.968Z,101370.94
2023-04-09T11:01:23.071Z,101378.00
2023-04-09T11:03:26.308Z,101365.69
2023-04-09T11:05:33.874Z,101368.31
2023-04-09T11:07:44.702Z,101371.13
2023-04-09T11:09:47.530Z,101365.63
2023-04-09T11:11:53.108Z,101361.50
2023-04-09T11:13:59.011Z,101371.63
2023-04-09T11:16:00.625Z,101365.38
2023-04-09T11:18:03.727Z,101367.75
2023-04-09T11:20:06.535Z,101360.69
2023-04-09T11:22:08.119Z,101357.69
2023-04-09T11:24:11.889Z,101359.50
2023-04-09T11:26:13.468Z,101363.94
2023-04-09T11:28:15.091Z,101365.22
2023-04-09T11:30:17.037Z,101360.06
2023-04-09T11:32:20.601Z,101359.06
2023-04-09T11:34:27.624Z,101364.22
2023-04-09T11:36:29.343Z,101364.94
2023-04-09T11:38:31.645Z,101355.03
2023-04-09T11:40:33.319Z,101347.63
2023-04-09T11:42:34.933Z,101353.88
2023-04-09T11:44:36.526Z,101356.00
2023-04-09T11:46:38.849Z,101351.31
2023-04-09T11:48:40.589Z,101354.25
2023-04-09T11:50:43.720Z,101357.09
2023-04-09T11:52:45.760Z,101355.03
2023-04-09T11:54:48.977Z,101356.34
2023-04-09T11:56:50.528Z,101351.88
2023-04-09T11:58:54.910Z,101359.66
2023-04-09T12:00:58.715Z,101354.00
2023-04-09T12:03:02.953Z,101350.94
2023-04-09T12:05:05.525Z,101345.78
2023-04-09T12:07:09.513Z,101353.88
2023-04-09T12:09:11.053Z,101348.94
2023-04-09T12:11:15.268Z,101351.31
2023-04-09T12:13:16.824Z,101351.84
2023-04-09T12:15:19.869Z,101354.25
2023-04-09T12:17:21.430Z,101354.97
2023-04-09T12:19:25.518Z,101353.59
2023-04-09T12:21:45.374Z,101353.72
2023-04-09T12:23:48.347Z,101354.09
2023-04-09T12:25:49.904Z,101349.38
2023-04-09T12:27:51.406Z,101350.75
2023-04-09T12:29:52.957Z,101349.84
2023-04-09T12:31:54.564Z,101351.00
2023-04-09T12:33:56.242Z,101344.31
2023-04-09T12:35:57.779Z,101343.28
2023-04-09T12:37:59.488Z,101331.69
2023-04-09T12:40:02.570Z,101323.63
2023-04-09T12:42:04.181Z,101334.91
2023-04-09T12:44:05.834Z,101334.56
2023-04-09T12:46:07.434Z,101330.41
2023-04-09T12:48:09.050Z,101322.63
2023-04-09T12:50:12.442Z,101324.56
2023-04-09T12:52:13.962Z,101323.84
2023-04-09T12:54:15.452Z,101320.03
2023-04-09T12:56:18.380Z,101323.16
2023-04-09T12:58:19.967Z,101317.91
2023-04-09T13:00:21.459Z,101316.00
2023-04-09T13:02:23.583Z,101315.72
2023-04-09T13:04:25.266Z,101308.19
2023-04-09T13:06:27.047Z,101306.38
2023-04-09T13:08:28.588Z,101299.53
2023-04-09T13:10:31.304Z,101296.69
2023-04-09T13:12:34.186Z,101289.94
2023-04-09T13:14:35.796Z,101297.50
2023-04-09T13:16:41.059Z,101295.00
2023-04-09T13:18:42.614Z,101292.88
2023-04-09T13:20:44.229Z,101292.88
2023-04-09T13:22:46.972Z,101285.50
2023-04-09T13:24:48.581Z,101286.19
2023-04-09T13:26:50.241Z,101280.75
2023-04-09T13:28:53.374Z,101285.00
2023-04-09T13:30:55.163Z,101273.91
2023-04-09T13:32:56.839Z,101275.94
2023-04-09T13:34:58.442Z,101272.28
2023-04-09T13:37:00.024Z,101269.75
2023-04-09T13:39:01.774Z,101268.47
2023-04-09T13:41:03.566Z,101263.53
2023-04-09T13:43:05.168Z,101264.41
2023-04-09T13:45:08.945Z,101258.00
2023-04-09T13:47:11.021Z,101260.41
2023-04-09T13:49:12.617Z,101263.13
2023-04-09T13:51:14.226Z,101258.97
2023-04-09T13:53:15.775Z,101250.28
2023-04-09T13:55:17.434Z,101246.78
2023-04-09T13:57:18.985Z,101248.91
2023-04-09T13:59:20.604Z,101240.00
2023-04-09T14:01:23.569Z,101236.97
2023-04-09T14:03:25.193Z,101239.38
2023-04-09T14:05:26.800Z,101244.91
2023-04-09T14:07:28.405Z,101238.97
2023-04-09T14:09:30.043Z,101244.13
2023-04-09T14:11:31.577Z,101235.13
2023-04-09T14:13:33.119Z,101240.19
2023-04-09T14:15:34.745Z,101229.63
2023-04-09T14:17:37.826Z,101239.88
2023-04-09T14:19:39.576Z,101234.88
2023-04-09T14:21:41.281Z,101230.44
2023-04-09T14:23:42.834Z,101241.53
2023-04-09T14:25:44.807Z,101230.03
2023-04-09T14:27:46.393Z,101240.31
2023-04-09T14:29:47.936Z,101233.06
2023-04-09T14:31:49.656Z,101237.59
2023-04-09T14:33:52.770Z,101229.63
2023-04-09T14:35:54.425Z,101222.69
2023-04-09T14:37:55.925Z,101227.63
2023-04-09T14:39:57.806Z,101229.34
2023-04-09T14:41:59.339Z,101233.44
2023-04-09T14:44:00.877Z,101223.66
2023-04-09T14:46:02.497Z,101223.47
2023-04-09T14:48:04.154Z,101220.94
2023-04-09T14:50:08.253Z,101219.44
2023-04-09T14:52:09.858Z,101223.59
2023-04-09T14:54:11.386Z,101213.09
2023-04-09T14:56:13.009Z,101213.69
2023-04-09T14:58:14.560Z,101213.50
2023-04-09T15:00:16.285Z,101209.16
2023-04-09T15:02:17.900Z,101212.47
2023-04-09T15:04:19.732Z,101210.06
2023-04-09T15:06:26.117Z,101210.06
2023-04-09T15:08:27.672Z,101210.06
2023-04-09T15:10:29.231Z,101202.50
2023-04-09T15:12:31.354Z,101202.41
2023-04-09T15:14:32.921Z,101192.81
2023-04-09T15:16:34.641Z,101193.72
2023-04-09T15:18:36.294Z,101190.81
2023-04-09T15:20:38.384Z,101190.09
2023-04-09T15:22:41.396Z,101190.50
2023-04-09T15:24:42.943Z,101189.72
2023-04-09T15:26:44.445Z,101188.88
2023-04-09T15:28:46.139Z,101192.94
2023-04-09T15:30:47.711Z,101192.94
2023-04-09T15:32:49.271Z,101185.50
2023-04-09T15:34:50.877Z,101195.13
2023-04-09T15:36:52.745Z,101194.81
2023-04-09T15:38:55.831Z,101193.53
2023-04-09T15:40:57.476Z,101190.22
2023-04-09T15:42:59.111Z,101186.78
2023-04-09T15:45:00.688Z,101183.94
2023-04-09T15:47:02.277Z,101185.69
2023-04-09T15:49:04.615Z,101196.06
2023-04-09T15:51:06.399Z,101194.38
2023-04-09T15:53:08.049Z,101188.91
2023-04-09T15:55:11.312Z,101190.81
2023-04-09T15:57:12.864Z,101199.31
2023-04-09T15:59:14.401Z,101201.19
2023-04-09T16:01:15.996Z,101186.06
2023-04-09T16:03:18.393Z,101191.28
2023-04-09T16:05:23.384Z,101191.06
2023-04-09T16:07:24.976Z,101197.16
2023-04-09T16:09:26.604Z,101195.84
2023-04-09T16:11:29.482Z,101194.22
2023-04-09T16:13:31.241Z,101192.28
2023-04-09T16:15:32.895Z,101188.09
2023-04-09T16:17:40.283Z,101190.88
2023-04-09T16:19:43.141Z,101189.47
2023-04-09T16:21:44.790Z,101188.69
2023-04-09T16:23:46.333Z,101187.66
2023-04-09T16:25:48.139Z,101191.59
2023-04-09T16:27:51.185Z,101189.16
2023-04-09T16:29:52.734Z,101194.91
2023-04-09T16:31:54.359Z,101191.28
2023-04-09T16:33:56.068Z,101191.00
2023-04-09T16:35:57.643Z,101183.63
2023-04-09T16:37:59.179Z,101187.16
2023-04-09T16:40:00.739Z,101187.16
2023-04-09T16:42:02.325Z,101189.16
2023-04-09T16:44:05.278Z,101185.13
2023-04-09T16:46:06.917Z,101180.22
2023-04-09T16:48:08.565Z,101183.84
2023-04-09T16:50:10.832Z,101179.69
2023-04-09T16:52:12.382Z,101180.84
2023-04-09T16:54:14.050Z,101174.47
2023-04-09T16:56:15.612Z,101181.53
2023-04-09T16:58:17.169Z,101175.59
2023-04-09T17:00:20.203Z,101168.81
2023-04-09T17:02:21.856Z,101171.34
2023-04-09T17:04:23.654Z,101177.09
2023-04-09T17:06:25.322Z,101177.88
2023-04-09T17:08:26.923Z,101176.38
2023-04-09T17:10:28.506Z,101170.81
2023-04-09T17:12:30.099Z,101173.25
2023-04-09T17:14:31.753Z,101174.38
2023-04-09T17:16:34.640Z,101176.28
2023-04-09T17:18:36.299Z,101180.41
2023-04-09T17:20:37.871Z,101175.03
2023-04-09T17:22:39.439Z,101176.25
2023-04-09T17:24:40.971Z,101182.22
2023-04-09T17:26:42.493Z,101184.03
2023-04-09T17:28:44.260Z,101189.47
2023-04-09T17:30:46.012Z,101187.94
2023-04-09T17:32:49.747Z,101187.66
2023-04-09T17:34:51.412Z,101193.09
2023-04-09T17:36:53.028Z,101193.38
2023-04-09T17:38:54.805Z,101195.56
2023-04-09T17:40:56.535Z,101202.94
2023-04-09T17:42:58.088Z,101203.72
2023-04-09T17:44:59.632Z,101202.16
2023-04-09T17:47:01.278Z,101211.41
2023-04-09T17:49:04.315Z,101204.81
2023-04-09T17:51:06.823Z,101213.97
2023-04-09T17:53:08.341Z,101211.09
2023-04-09T17:55:11.122Z,101212.69
2023-04-09T17:57:15.062Z,101217.44
2023-04-09T17:59:16.580Z,101210.97
2023-04-09T18:01:18.532Z,101206.63
2023-04-09T18:03:20.283Z,101212.97
2023-04-09T18:05:23.562Z,101215.19
2023-04-09T18:07:25.525Z,101210.63
2023-04-09T18:09:27.033Z,101210.44
2023-04-09T18:11:28.560Z,101217.28
2023-04-09T18:13:30.138Z,101215.13
2023-04-09T18:15:31.784Z,101216.25
2023-04-09T18:17:33.396Z,101215.97
2023-04-09T18:19:35.117Z,101210.00
2023-04-09T18:21:37.982Z,101216.84
2023-04-09T18:23:39.489Z,101216.34
2023-04-09T18:25:41.117Z,101221.56
2023-04-09T18:27:42.675Z,101225.59
2023-04-09T18:29:44.354Z,101227.81
2023-04-09T18:31:46.060Z,101229.72
2023-04-09T18:33:47.797Z,101229.53
2023-04-09T18:35:49.397Z,101232.31
2023-04-09T18:37:52.342Z,101238.44
2023-04-09T18:39:53.912Z,101234.88
2023-04-09T18:41:55.470Z,101238.94
2023-04-09T18:43:57.041Z,101241.34
2023-04-09T18:45:58.683Z,101240.31
2023-04-09T18:48:00.330Z,101233.00
2023-04-09T18:50:01.965Z,101235.91
2023-04-09T18:52:04.206Z,101236.22
2023-04-09T18:54:07.106Z,101239.47
2023-04-09T18:56:08.640Z,101234.16
2023-04-09T18:58:11.025Z,101232.63
2023-04-09T19:00:13.478Z,101238.13
2023-04-09T19:02:15.238Z,101236.53
2023-04-09T19:04:16.979Z,101242.19
2023-04-09T19:06:20.726Z,101238.53
2023-04-09T19:08:22.319Z,101241.88
2023-04-09T19:10:25.359Z,101240.34
2023-04-09T19:12:26.982Z,101242.63
2023-04-09T19:14:28.578Z,101251.34
2023-04-09T19:16:30.139Z,101245.69
2023-04-09T19:18:31.972Z,101248.97
2023-04-09T19:20:33.545Z,101251.16
2023-04-09T19:22:35.066Z,101254.59
2023-04-09T19:24:36.652Z,101248.56
2023-04-09T19:26:39.580Z,101251.41
2023-04-09T19:28:41.149Z,101252.22
2023-04-09T19:30:42.714Z,101262.03
2023-04-09T19:32:45.514Z,101254.72
2023-04-09T19:34:47.153Z,101247.56
2023-04-09T19:36:48.692Z,101248.63
2023-04-09T19:38:50.563Z,101251.34
2023-04-09T19:40:52.241Z,101250.81
2023-04-09T19:42:55.134Z,101241.91
2023-04-09T19:44:56.693Z,101244.06
2023-04-09T19:46:58.384Z,101250.06
2023-04-09T19:48:59.974Z,101253.34
2023-04-09T19:51:01.621Z,101250.16
2023-04-09T19:53:03.371Z,101250.19
2023-04-09T19:55:05.924Z,101257.00
2023-04-09T19:57:07.487Z,101250.78
2023-04-09T19:59:10.379Z,101251.88
2023-04-09T20:01:11.998Z,101251.03
2023-04-09T20:03:13.842Z,101246.16
2023-04-09T20:05:15.688Z,101252.97
2023-04-09T20:07:17.162Z,101254.59
2023-04-09T20:09:18.719Z,101253.53
2023-04-09T20:11:20.311Z,101254.09
2023-04-09T20:13:21.823Z,101267.69
2023-04-09T20:15:24.992Z,101268.81
2023-04-09T20:17:26.511Z,101263.44
2023-04-09T20:19:28.078Z,101265.72
2023-04-09T20:21:29.715Z,101257.66
2023-04-09T20:23:31.328Z,101261.16
2023-04-09T20:25:32.934Z,101256.56
2023-04-09T20:27:34.480Z,101257.41
2023-04-09T20:29:35.984Z,101261.75
2023-04-09T20:31:39.001Z,101257.16
2023-04-09T20:33:40.586Z,101252.53
2023-04-09T20:35:42.120Z,101251.19
2023-04-09T20:37:43.688Z,101249.28
2023-04-09T20:39:45.232Z,101248.72
2023-04-09T20:41:46.788Z,101250.63
2023-04-09T20:43:48.287Z,101253.38
2023-04-09T20:45:49.908Z,101250.66
2023-04-09T20:47:52.847Z,101243.38
2023-04-09T20:49:54.452Z,101240.41
2023-04-09T20:51:56.050Z,101240.41
2023-04-09T20:53:57.997Z,101238.25
2023-04-09T20:55:59.553Z,101243.66
2023-04-09T20:58:01.191Z,101251.31
2023-04-09T21:00:02.743Z,101252.38
2023-04-09T21:02:04.485Z,101248.59
2023-04-09T21:04:07.802Z,101246.97
2023-04-09T21:06:09.567Z,101242.72
2023-04-09T21:08:11.074Z,101243.78
2023-04-09T21:10:12.598Z,101247.06
2023-04-09T21:12:14.116Z,101249.53
2023-04-09T21:14:15.629Z,101238.72
2023-04-09T21:16:17.649Z,101244.66
2023-04-09T21:18:19.463Z,101237.34
2023-04-09T21:20:22.400Z,101243.28
2023-04-09T21:22:24.018Z,101244.63
2023-04-09T21:24:25.567Z,101244.84
2023-04-09T21:26:28.117Z,101247.03
2023-04-09T21:28:31.742Z,101248.06
2023-04-09T21:30:33.427Z,101251.56
2023-04-09T21:32:34.968Z,101251.31
2023-04-09T21:34:36.530Z,101248.84
2023-04-09T21:36:39.503Z,101253.75
2023-04-09T21:38:41.167Z,101248.66
2023-04-09T21:40:42.728Z,101243.78
2023-04-09T21:42:44.265Z,101240.25
2023-04-09T21:44:45.835Z,101243.78
2023-04-09T21:46:47.532Z,101232.16
2023-04-09T21:48:49.088Z,101240.56
2023-04-09T21:50:50.666Z,101228.13
2023-04-09T21:52:53.580Z,101228.69
2023-04-09T21:54:55.178Z,101232.19
2023-04-09T21:56:56.722Z,101223.81
2023-04-09T21:58:58.288Z,101226.25
2023-04-09T22:00:59.917Z,101226.81
2023-04-09T22:03:01.776Z,101227.59
2023-04-09T22:05:04.083Z,101226.50
2023-04-09T22:07:05.708Z,101230.84
2023-04-09T22:09:08.645Z,101233.81
2023-04-09T22:11:10.272Z,101234.88
2023-04-09T22:13:11.814Z,101231.94
2023-04-09T22:15:13.389Z,101224.34
2023-04-09T22:17:14.969Z,101229.75
2023-04-09T22:19:16.539Z,101225.41
2023-04-09T22:21:18.195Z,101231.03
2023-04-09T22:23:19.770Z,101233.19
2023-04-09T22:25:22.853Z,101236.25
2023-04-09T22:27:24.619Z,101242.19
2023-04-09T22:29:26.778Z,101249.81
2023-04-09T22:31:28.416Z,101254.69
2023-04-09T22:33:30.133Z,101250.34
2023-04-09T22:35:32.215Z,101246.84
2023-04-09T22:37:33.799Z,101243.00
2023-04-09T22:39:35.293Z,101250.94
2023-04-09T22:41:38.484Z,101246.94
2023-04-09T22:43:39.988Z,101259.66
2023-04-09T22:45:41.546Z,101258.31
2023-04-09T22:47:43.131Z,101255.91
2023-04-09T22:49:44.737Z,101256.44
2023-04-09T22:51:46.287Z,101246.97
2023-04-09T22:53:47.849Z,101245.88
2023-04-09T22:55:51.028Z,101246.44
2023-04-09T22:57:54.123Z,101249.16
2023-04-09T22:59:55.742Z,101242.38
2023-04-09T23:01:57.343Z,101246.97
2023-04-09T23:03:58.925Z,101245.91
2023-04-09T23:06:00.646Z,101240.75
2023-04-09T23:08:02.250Z,101239.13
2023-04-09T23:10:04.122Z,101239.66
2023-04-09T23:12:05.689Z,101241.81
2023-04-09T23:14:08.612Z,101243.97
2023-04-09T23:16:10.609Z,101241.03
2023-04-09T23:18:12.257Z,101253.47